sensor_id;sensor_type;location;lat;lon;timestamp;P1;durP1;ratioP1;P2;durP2;ratioP2
53710;SDS011;39605;52.704;6.752;2023-08-01T00:02:10;7.43;;;4.72;;
53710;SDS011;39605;52.704;6.752;2023-08-01T00:04:36;7.18;;;4.88;;
53710;SDS011;39605;52.704;6.752;2023-08-01T00:07:02;6.90;;;4.65;;
53710;SDS011;39605;52.704;6.752;2023-08-01T00:09:28;6.88;;;4.65;;
53710;SDS011;39605;52.704;6.752;2023-08-01T00:11:55;6.40;;;5.18;;
53710;SDS011;39605;52.704;6.752;2023-08-01T00:14:21;6.15;;;5.07;;
53710;SDS011;39605;52.704;6.752;2023-08-01T00:16:49;6.03;;;4.93;;
53710;SDS011;39605;52.704;6.752;2023-08-01T00:19:15;6.63;;;4.38;;
53710;SDS011;39605;52.704;6.752;2023-08-01T00:21:41;5.20;;;4.70;;
53710;SDS011;39605;52.704;6.752;2023-08-01T00:24:08;6.15;;;4.50;;
53710;SDS011;39605;52.704;6.752;2023-08-01T00:26:34;6.45;;;4.03;;
53710;SDS011;39605;52.704;6.752;2023-08-01T00:29:00;5.05;;;3.85;;
53710;SDS011;39605;52.704;6.752;2023-08-01T00:31:26;4.53;;;4.00;;
53710;SDS011;39605;52.704;6.752;2023-08-01T00:33:52;4.80;;;4.40;;
53710;SDS011;39605;52.704;6.752;2023-08-01T00:36:18;5.30;;;4.38;;
53710;SDS011;39605;52.704;6.752;2023-08-01T00:38:45;6.25;;;4.57;;
53710;SDS011;39605;52.704;6.752;2023-08-01T00:41:12;4.05;;;3.67;;
53710;SDS011;39605;52.704;6.752;2023-08-01T00:43:38;5.18;;;3.50;;
53710;SDS011;39605;52.704;6.752;2023-08-01T00:46:04;4.40;;;3.78;;
53710;SDS011;39605;52.704;6.752;2023-08-01T00:48:31;6.10;;;4.35;;
53710;SDS011;39605;52.704;6.752;2023-08-01T00:50:58;5.13;;;4.45;;
53710;SDS011;39605;52.704;6.752;2023-08-01T00:53:25;6.28;;;4.60;;
53710;SDS011;39605;52.704;6.752;2023-08-01T00:55:51;6.63;;;3.80;;
53710;SDS011;39605;52.704;6.752;2023-08-01T00:58:21;5.70;;;4.63;;
53710;SDS011;39605;52.704;6.752;2023-08-01T01:00:47;6.22;;;4.07;;
53710;SDS011;39605;52.704;6.752;2023-08-01T01:03:13;9.32;;;4.90;;
53710;SDS011;39605;52.704;6.752;2023-08-01T01:05:41;5.07;;;4.65;;
53710;SDS011;39605;52.704;6.752;2023-08-01T01:08:08;5.25;;;4.50;;
53710;SDS011;39605;52.704;6.752;2023-08-01T01:10:35;7.63;;;4.95;;
53710;SDS011;39605;52.704;6.752;2023-08-01T01:13:01;5.53;;;4.78;;
53710;SDS011;39605;52.704;6.752;2023-08-01T01:15:27;5.95;;;5.05;;
53710;SDS011;39605;52.704;6.752;2023-08-01T01:17:53;5.65;;;5.15;;
53710;SDS011;39605;52.704;6.752;2023-08-01T01:20:20;7.00;;;5.22;;
53710;SDS011;39605;52.704;6.752;2023-08-01T01:22:46;6.55;;;4.72;;
53710;SDS011;39605;52.704;6.752;2023-08-01T01:25:13;6.85;;;4.38;;
53710;SDS011;39605;52.704;6.752;2023-08-01T01:27:40;7.43;;;5.50;;
53710;SDS011;39605;52.704;6.752;2023-08-01T01:30:06;7.72;;;6.38;;
53710;SDS011;39605;52.704;6.752;2023-08-01T01:32:32;7.05;;;6.40;;
53710;SDS011;39605;52.704;6.752;2023-08-01T01:35:00;12.15;;;6.82;;
53710;SDS011;39605;52.704;6.752;2023-08-01T01:37:26;11.27;;;7.55;;
53710;SDS011;39605;52.704;6.752;2023-08-01T01:39:52;9.05;;;7.07;;
53710;SDS011;39605;52.704;6.752;2023-08-01T01:42:19;9.55;;;7.10;;
53710;SDS011;39605;52.704;6.752;2023-08-01T01:44:45;10.38;;;7.45;;
53710;SDS011;39605;52.704;6.752;2023-08-01T01:47:11;8.93;;;6.60;;
53710;SDS011;39605;52.704;6.752;2023-08-01T01:49:37;9.02;;;7.40;;
53710;SDS011;39605;52.704;6.752;2023-08-01T01:52:03;9.57;;;8.30;;
53710;SDS011;39605;52.704;6.752;2023-08-01T01:54:29;8.63;;;7.82;;
53710;SDS011;39605;52.704;6.752;2023-08-01T01:56:55;10.25;;;6.78;;
53710;SDS011;39605;52.704;6.752;2023-08-01T01:59:21;9.23;;;6.88;;
53710;SDS011;39605;52.704;6.752;2023-08-01T02:01:47;7.50;;;6.60;;
53710;SDS011;39605;52.704;6.752;2023-08-01T02:04:13;11.23;;;7.20;;
53710;SDS011;39605;52.704;6.752;2023-08-01T02:06:39;9.32;;;6.80;;
53710;SDS011;39605;52.704;6.752;2023-08-01T02:09:06;7.90;;;7.10;;
53710;SDS011;39605;52.704;6.752;2023-08-01T02:11:32;7.82;;;6.38;;
53710;SDS011;39605;52.704;6.752;2023-08-01T02:13:58;7.82;;;6.65;;
53710;SDS011;39605;52.704;6.752;2023-08-01T02:16:24;10.02;;;6.47;;
53710;SDS011;39605;52.704;6.752;2023-08-01T02:18:50;9.07;;;5.88;;
53710;SDS011;39605;52.704;6.752;2023-08-01T02:21:16;10.15;;;6.22;;
53710;SDS011;39605;52.704;6.752;2023-08-01T02:23:42;8.18;;;5.78;;
53710;SDS011;39605;52.704;6.752;2023-08-01T02:26:08;6.95;;;5.45;;
53710;SDS011;39605;52.704;6.752;2023-08-01T02:28:34;5.72;;;5.20;;
53710;SDS011;39605;52.704;6.752;2023-08-01T02:31:00;9.05;;;5.57;;
53710;SDS011;39605;52.704;6.752;2023-08-01T02:33:26;7.85;;;5.30;;
53710;SDS011;39605;52.704;6.752;2023-08-01T02:35:52;6.13;;;5.43;;
53710;SDS011;39605;52.704;6.752;2023-08-01T02:38:18;5.97;;;4.93;;
53710;SDS011;39605;52.704;6.752;2023-08-01T02:40:45;7.75;;;4.90;;
53710;SDS011;39605;52.704;6.752;2023-08-01T02:43:11;8.00;;;4.93;;
53710;SDS011;39605;52.704;6.752;2023-08-01T02:45:37;13.70;;;5.32;;
53710;SDS011;39605;52.704;6.752;2023-08-01T02:48:03;9.52;;;4.70;;
53710;SDS011;39605;52.704;6.752;2023-08-01T02:50:29;5.10;;;4.63;;
53710;SDS011;39605;52.704;6.752;2023-08-01T02:52:55;10.85;;;4.75;;
53710;SDS011;39605;52.704;6.752;2023-08-01T02:55:21;10.68;;;5.25;;
53710;SDS011;39605;52.704;6.752;2023-08-01T02:57:47;9.30;;;4.22;;
53710;SDS011;39605;52.704;6.752;2023-08-01T03:00:13;9.52;;;4.53;;
53710;SDS011;39605;52.704;6.752;2023-08-01T03:02:39;7.70;;;3.85;;
53710;SDS011;39605;52.704;6.752;2023-08-01T03:05:06;6.13;;;3.92;;
53710;SDS011;39605;52.704;6.752;2023-08-01T03:07:33;7.05;;;4.07;;
53710;SDS011;39605;52.704;6.752;2023-08-01T03:09:59;7.82;;;3.70;;
53710;SDS011;39605;52.704;6.752;2023-08-01T03:12:25;5.88;;;3.50;;
53710;SDS011;39605;52.704;6.752;2023-08-01T03:14:51;6.18;;;3.40;;
53710;SDS011;39605;52.704;6.752;2023-08-01T03:17:17;10.05;;;3.55;;
53710;SDS011;39605;52.704;6.752;2023-08-01T03:19:43;7.90;;;3.47;;
53710;SDS011;39605;52.704;6.752;2023-08-01T03:22:09;8.15;;;3.72;;
53710;SDS011;39605;52.704;6.752;2023-08-01T03:24:35;8.82;;;4.10;;
53710;SDS011;39605;52.704;6.752;2023-08-01T03:27:01;7.40;;;3.70;;
53710;SDS011;39605;52.704;6.752;2023-08-01T03:29:28;11.45;;;4.15;;
53710;SDS011;39605;52.704;6.752;2023-08-01T03:31:54;8.50;;;3.58;;
53710;SDS011;39605;52.704;6.752;2023-08-01T03:34:20;7.30;;;3.55;;
53710;SDS011;39605;52.704;6.752;2023-08-01T03:36:46;7.95;;;3.22;;
53710;SDS011;39605;52.704;6.752;2023-08-01T03:39:12;5.40;;;3.20;;
53710;SDS011;39605;52.704;6.752;2023-08-01T03:41:38;10.55;;;3.50;;
53710;SDS011;39605;52.704;6.752;2023-08-01T03:44:05;9.82;;;3.67;;
53710;SDS011;39605;52.704;6.752;2023-08-01T03:46:31;9.07;;;3.80;;
53710;SDS011;39605;52.704;6.752;2023-08-01T03:48:57;9.55;;;4.43;;
53710;SDS011;39605;52.704;6.752;2023-08-01T03:51:23;6.82;;;3.85;;
53710;SDS011;39605;52.704;6.752;2023-08-01T03:53:49;12.82;;;3.85;;
53710;SDS011;39605;52.704;6.752;2023-08-01T03:56:15;6.07;;;3.88;;
53710;SDS011;39605;52.704;6.752;2023-08-01T03:58:41;11.07;;;4.03;;
53710;SDS011;39605;52.704;6.752;2023-08-01T04:01:07;9.00;;;3.80;;
53710;SDS011;39605;52.704;6.752;2023-08-01T04:03:33;6.30;;;3.88;;
53710;SDS011;39605;52.704;6.752;2023-08-01T04:05:59;11.38;;;4.65;;
53710;SDS011;39605;52.704;6.752;2023-08-01T04:08:25;8.45;;;4.07;;
53710;SDS011;39605;52.704;6.752;2023-08-01T04:10:52;9.68;;;4.78;;
53710;SDS011;39605;52.704;6.752;2023-08-01T04:13:18;10.63;;;4.20;;
53710;SDS011;39605;52.704;6.752;2023-08-01T04:15:44;10.45;;;4.45;;
53710;SDS011;39605;52.704;6.752;2023-08-01T04:18:10;6.25;;;4.75;;
53710;SDS011;39605;52.704;6.752;2023-08-01T04:20:36;7.18;;;3.88;;
53710;SDS011;39605;52.704;6.752;2023-08-01T04:23:02;5.70;;;4.00;;
53710;SDS011;39605;52.704;6.752;2023-08-01T04:25:28;4.03;;;3.38;;
53710;SDS011;39605;52.704;6.752;2023-08-01T04:27:54;6.43;;;3.80;;
53710;SDS011;39605;52.704;6.752;2023-08-01T04:30:20;5.53;;;4.03;;
53710;SDS011;39605;52.704;6.752;2023-08-01T04:32:46;7.38;;;3.35;;
53710;SDS011;39605;52.704;6.752;2023-08-01T04:35:12;6.80;;;3.90;;
53710;SDS011;39605;52.704;6.752;2023-08-01T04:37:38;5.03;;;3.33;;
53710;SDS011;39605;52.704;6.752;2023-08-01T04:40:05;4.30;;;3.13;;
53710;SDS011;39605;52.704;6.752;2023-08-01T04:42:31;3.65;;;2.20;;
53710;SDS011;39605;52.704;6.752;2023-08-01T04:44:57;2.45;;;1.60;;
53710;SDS011;39605;52.704;6.752;2023-08-01T04:47:23;3.33;;;1.60;;
53710;SDS011;39605;52.704;6.752;2023-08-01T04:49:49;2.45;;;0.98;;
53710;SDS011;39605;52.704;6.752;2023-08-01T04:52:15;2.92;;;0.95;;
53710;SDS011;39605;52.704;6.752;2023-08-01T04:54:41;2.08;;;0.80;;
53710;SDS011;39605;52.704;6.752;2023-08-01T04:57:07;3.30;;;1.33;;
53710;SDS011;39605;52.704;6.752;2023-08-01T04:59:33;1.92;;;0.77;;
53710;SDS011;39605;52.704;6.752;2023-08-01T05:01:59;1.10;;;0.70;;
53710;SDS011;39605;52.704;6.752;2023-08-01T05:04:25;3.83;;;1.50;;
53710;SDS011;39605;52.704;6.752;2023-08-01T05:06:52;2.55;;;1.08;;
53710;SDS011;39605;52.704;6.752;2023-08-01T05:09:18;1.80;;;1.00;;
53710;SDS011;39605;52.704;6.752;2023-08-01T05:11:44;2.25;;;1.50;;
53710;SDS011;39605;52.704;6.752;2023-08-01T05:14:10;4.35;;;1.30;;
53710;SDS011;39605;52.704;6.752;2023-08-01T05:16:36;2.10;;;0.98;;
53710;SDS011;39605;52.704;6.752;2023-08-01T05:19:02;1.95;;;1.23;;
53710;SDS011;39605;52.704;6.752;2023-08-01T05:21:28;3.83;;;1.25;;
53710;SDS011;39605;52.704;6.752;2023-08-01T05:23:54;2.63;;;1.20;;
53710;SDS011;39605;52.704;6.752;2023-08-01T05:26:20;2.33;;;0.95;;
53710;SDS011;39605;52.704;6.752;2023-08-01T05:28:46;3.15;;;1.20;;
53710;SDS011;39605;52.704;6.752;2023-08-01T05:31:12;2.65;;;0.77;;
53710;SDS011;39605;52.704;6.752;2023-08-01T05:33:39;2.97;;;0.88;;
53710;SDS011;39605;52.704;6.752;2023-08-01T05:36:05;3.08;;;1.10;;
53710;SDS011;39605;52.704;6.752;2023-08-01T05:38:31;3.75;;;1.23;;
53710;SDS011;39605;52.704;6.752;2023-08-01T05:40:57;4.18;;;1.23;;
53710;SDS011;39605;52.704;6.752;2023-08-01T05:43:23;3.22;;;1.17;;
53710;SDS011;39605;52.704;6.752;2023-08-01T05:45:49;4.95;;;1.45;;
53710;SDS011;39605;52.704;6.752;2023-08-01T05:48:15;6.70;;;1.27;;
53710;SDS011;39605;52.704;6.752;2023-08-01T05:50:41;4.10;;;1.17;;
53710;SDS011;39605;52.704;6.752;2023-08-01T05:53:07;1.95;;;0.60;;
53710;SDS011;39605;52.704;6.752;2023-08-01T05:55:33;3.75;;;1.45;;
53710;SDS011;39605;52.704;6.752;2023-08-01T05:58:00;2.63;;;0.80;;
53710;SDS011;39605;52.704;6.752;2023-08-01T06:00:26;2.63;;;1.00;;
53710;SDS011;39605;52.704;6.752;2023-08-01T06:02:52;6.13;;;1.20;;
53710;SDS011;39605;52.704;6.752;2023-08-01T06:05:18;4.57;;;0.80;;
53710;SDS011;39605;52.704;6.752;2023-08-01T06:07:44;4.22;;;1.00;;
53710;SDS011;39605;52.704;6.752;2023-08-01T06:10:10;2.60;;;0.60;;
53710;SDS011;39605;52.704;6.752;2023-08-01T06:12:36;4.25;;;0.85;;
53710;SDS011;39605;52.704;6.752;2023-08-01T06:15:03;2.60;;;0.95;;
53710;SDS011;39605;52.704;6.752;2023-08-01T06:17:29;3.22;;;0.88;;
53710;SDS011;39605;52.704;6.752;2023-08-01T06:19:56;3.72;;;1.45;;
53710;SDS011;39605;52.704;6.752;2023-08-01T06:22:22;3.80;;;1.58;;
53710;SDS011;39605;52.704;6.752;2023-08-01T06:24:48;3.88;;;1.55;;
53710;SDS011;39605;52.704;6.752;2023-08-01T06:27:14;3.55;;;1.90;;
53710;SDS011;39605;52.704;6.752;2023-08-01T06:29:40;4.50;;;2.13;;
53710;SDS011;39605;52.704;6.752;2023-08-01T06:32:06;5.03;;;2.42;;
53710;SDS011;39605;52.704;6.752;2023-08-01T06:34:32;4.82;;;2.47;;
53710;SDS011;39605;52.704;6.752;2023-08-01T06:36:58;6.05;;;2.88;;
53710;SDS011;39605;52.704;6.752;2023-08-01T06:39:24;5.60;;;2.92;;
53710;SDS011;39605;52.704;6.752;2023-08-01T06:41:50;4.03;;;2.20;;
53710;SDS011;39605;52.704;6.752;2023-08-01T06:44:17;3.58;;;1.20;;
53710;SDS011;39605;52.704;6.752;2023-08-01T06:46:43;1.63;;;1.00;;
53710;SDS011;39605;52.704;6.752;2023-08-01T06:49:09;2.28;;;0.90;;
53710;SDS011;39605;52.704;6.752;2023-08-01T06:51:35;1.60;;;0.50;;
53710;SDS011;39605;52.704;6.752;2023-08-01T06:54:01;3.72;;;0.57;;
53710;SDS011;39605;52.704;6.752;2023-08-01T06:56:27;1.45;;;0.50;;
53710;SDS011;39605;52.704;6.752;2023-08-01T06:58:53;1.58;;;0.90;;
53710;SDS011;39605;52.704;6.752;2023-08-01T07:01:19;1.30;;;0.73;;
53710;SDS011;39605;52.704;6.752;2023-08-01T07:03:45;1.90;;;1.13;;
53710;SDS011;39605;52.704;6.752;2023-08-01T07:06:11;1.77;;;0.85;;
53710;SDS011;39605;52.704;6.752;2023-08-01T07:08:37;2.75;;;1.15;;
53710;SDS011;39605;52.704;6.752;2023-08-01T07:11:03;2.90;;;1.02;;
53710;SDS011;39605;52.704;6.752;2023-08-01T07:13:29;4.65;;;1.13;;
53710;SDS011;39605;52.704;6.752;2023-08-01T07:15:55;3.42;;;1.10;;
53710;SDS011;39605;52.704;6.752;2023-08-01T07:18:22;1.52;;;1.15;;
53710;SDS011;39605;52.704;6.752;2023-08-01T07:20:48;1.85;;;0.88;;
53710;SDS011;39605;52.704;6.752;2023-08-01T07:23:14;4.40;;;1.17;;
53710;SDS011;39605;52.704;6.752;2023-08-01T07:25:40;1.92;;;0.98;;
53710;SDS011;39605;52.704;6.752;2023-08-01T07:28:06;1.05;;;0.50;;
53710;SDS011;39605;52.704;6.752;2023-08-01T07:30:32;2.17;;;0.60;;
53710;SDS011;39605;52.704;6.752;2023-08-01T07:32:58;1.85;;;0.70;;
53710;SDS011;39605;52.704;6.752;2023-08-01T07:35:24;3.92;;;0.80;;
53710;SDS011;39605;52.704;6.752;2023-08-01T07:37:50;1.42;;;0.82;;
53710;SDS011;39605;52.704;6.752;2023-08-01T07:40:16;2.60;;;0.82;;
53710;SDS011;39605;52.704;6.752;2023-08-01T07:42:42;1.65;;;0.65;;
53710;SDS011;39605;52.704;6.752;2023-08-01T07:45:09;3.20;;;0.93;;
53710;SDS011;39605;52.704;6.752;2023-08-01T07:47:37;1.95;;;0.73;;
53710;SDS011;39605;52.704;6.752;2023-08-01T07:50:03;1.65;;;0.60;;
53710;SDS011;39605;52.704;6.752;2023-08-01T07:52:29;1.50;;;0.50;;
53710;SDS011;39605;52.704;6.752;2023-08-01T07:54:55;2.08;;;0.57;;
53710;SDS011;39605;52.704;6.752;2023-08-01T07:57:23;2.83;;;0.50;;
53710;SDS011;39605;52.704;6.752;2023-08-01T07:59:49;2.63;;;0.47;;
53710;SDS011;39605;52.704;6.752;2023-08-01T08:02:16;1.00;;;0.40;;
53710;SDS011;39605;52.704;6.752;2023-08-01T08:04:42;5.22;;;0.52;;
53710;SDS011;39605;52.704;6.752;2023-08-01T08:07:08;1.90;;;0.55;;
53710;SDS011;39605;52.704;6.752;2023-08-01T08:09:34;2.60;;;0.50;;
53710;SDS011;39605;52.704;6.752;2023-08-01T08:12:00;1.20;;;0.40;;
53710;SDS011;39605;52.704;6.752;2023-08-01T08:14:26;1.27;;;0.65;;
53710;SDS011;39605;52.704;6.752;2023-08-01T08:16:52;2.88;;;0.50;;
53710;SDS011;39605;52.704;6.752;2023-08-01T08:19:18;2.40;;;0.50;;
53710;SDS011;39605;52.704;6.752;2023-08-01T08:21:44;1.25;;;0.50;;
53710;SDS011;39605;52.704;6.752;2023-08-01T08:24:10;3.22;;;0.50;;
53710;SDS011;39605;52.704;6.752;2023-08-01T08:26:36;1.40;;;0.40;;
53710;SDS011;39605;52.704;6.752;2023-08-01T08:29:04;1.38;;;0.40;;
53710;SDS011;39605;52.704;6.752;2023-08-01T08:31:36;1.38;;;0.40;;
53710;SDS011;39605;52.704;6.752;2023-08-01T08:34:02;1.45;;;0.40;;
53710;SDS011;39605;52.704;6.752;2023-08-01T08:36:28;2.08;;;0.50;;
53710;SDS011;39605;52.704;6.752;2023-08-01T08:38:54;2.28;;;0.55;;
53710;SDS011;39605;52.704;6.752;2023-08-01T08:41:21;1.80;;;0.60;;
53710;SDS011;39605;52.704;6.752;2023-08-01T08:43:48;0.73;;;0.40;;
53710;SDS011;39605;52.704;6.752;2023-08-01T08:46:15;2.28;;;0.73;;
53710;SDS011;39605;52.704;6.752;2023-08-01T08:48:41;2.70;;;0.77;;
53710;SDS011;39605;52.704;6.752;2023-08-01T08:51:09;2.53;;;0.90;;
53710;SDS011;39605;52.704;6.752;2023-08-01T08:53:35;1.50;;;0.95;;
53710;SDS011;39605;52.704;6.752;2023-08-01T08:56:02;2.63;;;1.05;;
53710;SDS011;39605;52.704;6.752;2023-08-01T08:58:31;2.50;;;1.50;;
53710;SDS011;39605;52.704;6.752;2023-08-01T09:01:00;4.25;;;1.20;;
53710;SDS011;39605;52.704;6.752;2023-08-01T09:03:27;5.57;;;1.20;;
53710;SDS011;39605;52.704;6.752;2023-08-01T09:06:04;3.58;;;1.45;;
53710;SDS011;39605;52.704;6.752;2023-08-01T09:08:34;2.85;;;1.20;;
53710;SDS011;39605;52.704;6.752;2023-08-01T09:11:01;4.43;;;1.20;;
53710;SDS011;39605;52.704;6.752;2023-08-01T09:13:29;5.97;;;1.40;;
53710;SDS011;39605;52.704;6.752;2023-08-01T09:15:56;4.43;;;0.88;;
53710;SDS011;39605;52.704;6.752;2023-08-01T09:18:22;5.35;;;1.30;;
53710;SDS011;39605;52.704;6.752;2023-08-01T09:20:48;2.80;;;0.63;;
53710;SDS011;39605;52.704;6.752;2023-08-01T09:23:18;5.90;;;1.08;;
53710;SDS011;39605;52.704;6.752;2023-08-01T09:25:44;5.35;;;1.05;;
53710;SDS011;39605;52.704;6.752;2023-08-01T09:28:21;4.88;;;1.20;;
53710;SDS011;39605;52.704;6.752;2023-08-01T09:33:13;5.15;;;1.20;;
53710;SDS011;39605;52.704;6.752;2023-08-01T09:35:40;5.13;;;1.40;;
53710;SDS011;39605;52.704;6.752;2023-08-01T09:38:06;5.20;;;0.90;;
53710;SDS011;39605;52.704;6.752;2023-08-01T09:40:39;4.28;;;0.82;;
53710;SDS011;39605;52.704;6.752;2023-08-01T09:43:05;5.20;;;0.95;;
53710;SDS011;39605;52.704;6.752;2023-08-01T09:45:31;4.47;;;1.00;;
53710;SDS011;39605;52.704;6.752;2023-08-01T09:47:59;3.80;;;0.70;;
53710;SDS011;39605;52.704;6.752;2023-08-01T09:50:25;2.85;;;0.80;;
53710;SDS011;39605;52.704;6.752;2023-08-01T09:52:52;1.48;;;0.85;;
53710;SDS011;39605;52.704;6.752;2023-08-01T09:55:23;3.63;;;0.70;;
53710;SDS011;39605;52.704;6.752;2023-08-01T09:57:51;4.18;;;1.52;;
53710;SDS011;39605;52.704;6.752;2023-08-01T10:00:19;4.43;;;1.13;;
53710;SDS011;39605;52.704;6.752;2023-08-01T10:02:45;6.03;;;0.75;;
53710;SDS011;39605;52.704;6.752;2023-08-01T10:05:11;0.73;;;0.10;;
53710;SDS011;39605;52.704;6.752;2023-08-01T10:07:38;1.63;;;0.15;;
53710;SDS011;39605;52.704;6.752;2023-08-01T10:10:07;0.65;;;0.10;;
53710;SDS011;39605;52.704;6.752;2023-08-01T10:12:33;1.98;;;0.10;;
53710;SDS011;39605;52.704;6.752;2023-08-01T10:14:59;0.80;;;0.10;;
53710;SDS011;39605;52.704;6.752;2023-08-01T10:17:26;0.77;;;0.25;;
53710;SDS011;39605;52.704;6.752;2023-08-01T10:19:53;0.50;;;0.32;;
53710;SDS011;39605;52.704;6.752;2023-08-01T10:22:22;1.75;;;0.20;;
53710;SDS011;39605;52.704;6.752;2023-08-01T10:24:49;0.40;;;0.20;;
53710;SDS011;39605;52.704;6.752;2023-08-01T10:27:20;1.65;;;0.40;;
53710;SDS011;39605;52.704;6.752;2023-08-01T10:29:59;1.60;;;0.40;;
53710;SDS011;39605;52.704;6.752;2023-08-01T10:32:35;0.75;;;0.20;;
53710;SDS011;39605;52.704;6.752;2023-08-01T10:35:02;2.97;;;0.10;;
53710;SDS011;39605;52.704;6.752;2023-08-01T10:37:44;0.50;;;0.10;;
53710;SDS011;39605;52.704;6.752;2023-08-01T10:40:13;0.20;;;0.10;;
53710;SDS011;39605;52.704;6.752;2023-08-01T10:42:40;0.68;;;0.20;;
53710;SDS011;39605;52.704;6.752;2023-08-01T10:45:07;1.95;;;0.20;;
53710;SDS011;39605;52.704;6.752;2023-08-01T10:47:33;1.85;;;0.20;;
53710;SDS011;39605;52.704;6.752;2023-08-01T10:49:59;0.75;;;0.20;;
53710;SDS011;39605;52.704;6.752;2023-08-01T10:52:26;1.05;;;0.30;;
53710;SDS011;39605;52.704;6.752;2023-08-01T10:54:59;1.42;;;0.22;;
53710;SDS011;39605;52.704;6.752;2023-08-01T10:57:29;1.45;;;0.35;;
53710;SDS011;39605;52.704;6.752;2023-08-01T10:59:57;3.58;;;0.55;;
53710;SDS011;39605;52.704;6.752;2023-08-01T11:02:24;2.33;;;0.40;;
53710;SDS011;39605;52.704;6.752;2023-08-01T11:05:24;1.25;;;0.20;;
53710;SDS011;39605;52.704;6.752;2023-08-01T11:07:52;2.60;;;0.30;;
53710;SDS011;39605;52.704;6.752;2023-08-01T11:10:19;1.50;;;0.50;;
53710;SDS011;39605;52.704;6.752;2023-08-01T11:12:45;2.30;;;0.55;;
53710;SDS011;39605;52.704;6.752;2023-08-01T11:15:12;5.93;;;0.70;;
53710;SDS011;39605;52.704;6.752;2023-08-01T11:17:38;3.42;;;0.40;;
53710;SDS011;39605;52.704;6.752;2023-08-01T11:20:05;2.50;;;0.40;;
53710;SDS011;39605;52.704;6.752;2023-08-01T11:22:32;0.85;;;0.20;;
53710;SDS011;39605;52.704;6.752;2023-08-01T11:24:58;1.23;;;0.17;;
53710;SDS011;39605;52.704;6.752;2023-08-01T11:27:25;0.50;;;0.10;;
53710;SDS011;39605;52.704;6.752;2023-08-01T11:29:52;2.83;;;0.10;;
53710;SDS011;39605;52.704;6.752;2023-08-01T11:32:18;1.95;;;0.13;;
53710;SDS011;39605;52.704;6.752;2023-08-01T11:34:48;0.57;;;0.10;;
53710;SDS011;39605;52.704;6.752;2023-08-01T11:37:14;2.55;;;0.50;;
53710;SDS011;39605;52.704;6.752;2023-08-01T11:39:41;2.25;;;0.35;;
53710;SDS011;39605;52.704;6.752;2023-08-01T11:42:07;2.78;;;0.50;;
53710;SDS011;39605;52.704;6.752;2023-08-01T11:44:39;0.82;;;0.28;;
53710;SDS011;39605;52.704;6.752;2023-08-01T11:47:10;1.92;;;0.20;;
53710;SDS011;39605;52.704;6.752;2023-08-01T11:49:36;2.85;;;0.20;;
53710;SDS011;39605;52.704;6.752;2023-08-01T11:52:02;1.42;;;0.28;;
53710;SDS011;39605;52.704;6.752;2023-08-01T11:54:28;1.42;;;0.30;;
53710;SDS011;39605;52.704;6.752;2023-08-01T11:56:59;0.88;;;0.13;;
53710;SDS011;39605;52.704;6.752;2023-08-01T11:59:26;4.07;;;0.45;;
53710;SDS011;39605;52.704;6.752;2023-08-01T12:01:52;2.50;;;0.30;;
53710;SDS011;39605;52.704;6.752;2023-08-01T12:04:25;1.90;;;0.40;;
53710;SDS011;39605;52.704;6.752;2023-08-01T12:06:51;1.58;;;0.20;;
53710;SDS011;39605;52.704;6.752;2023-08-01T12:09:18;3.55;;;0.60;;
53710;SDS011;39605;52.704;6.752;2023-08-01T12:11:45;2.15;;;0.30;;
53710;SDS011;39605;52.704;6.752;2023-08-01T12:14:14;2.80;;;0.30;;
53710;SDS011;39605;52.704;6.752;2023-08-01T12:16:41;2.75;;;0.40;;
53710;SDS011;39605;52.704;6.752;2023-08-01T12:19:10;3.78;;;0.65;;
53710;SDS011;39605;52.704;6.752;2023-08-01T12:21:36;2.67;;;0.40;;
53710;SDS011;39605;52.704;6.752;2023-08-01T12:24:02;4.88;;;0.40;;
53710;SDS011;39605;52.704;6.752;2023-08-01T12:26:29;3.03;;;0.40;;
53710;SDS011;39605;52.704;6.752;2023-08-01T12:28:55;2.70;;;0.30;;
53710;SDS011;39605;52.704;6.752;2023-08-01T12:31:21;4.43;;;0.77;;
53710;SDS011;39605;52.704;6.752;2023-08-01T12:33:48;2.83;;;0.52;;
53710;SDS011;39605;52.704;6.752;2023-08-01T12:36:14;5.30;;;0.70;;
53710;SDS011;39605;52.704;6.752;2023-08-01T12:38:42;3.65;;;0.47;;
53710;SDS011;39605;52.704;6.752;2023-08-01T12:41:08;4.90;;;0.73;;
53710;SDS011;39605;52.704;6.752;2023-08-01T12:43:34;3.40;;;0.77;;
53710;SDS011;39605;52.704;6.752;2023-08-01T12:46:00;4.50;;;0.80;;
53710;SDS011;39605;52.704;6.752;2023-08-01T12:48:26;2.65;;;0.50;;
53710;SDS011;39605;52.704;6.752;2023-08-01T12:50:53;3.33;;;0.40;;
53710;SDS011;39605;52.704;6.752;2023-08-01T12:53:20;5.85;;;0.75;;
53710;SDS011;39605;52.704;6.752;2023-08-01T12:55:46;3.38;;;0.65;;
53710;SDS011;39605;52.704;6.752;2023-08-01T12:58:13;4.00;;;0.68;;
53710;SDS011;39605;52.704;6.752;2023-08-01T13:00:39;2.58;;;0.70;;
53710;SDS011;39605;52.704;6.752;2023-08-01T13:03:06;4.63;;;0.60;;
53710;SDS011;39605;52.704;6.752;2023-08-01T13:05:39;3.30;;;0.55;;
53710;SDS011;39605;52.704;6.752;2023-08-01T13:08:05;3.78;;;0.40;;
53710;SDS011;39605;52.704;6.752;2023-08-01T13:10:32;3.65;;;0.20;;
53710;SDS011;39605;52.704;6.752;2023-08-01T13:12:59;2.58;;;0.20;;
53710;SDS011;39605;52.704;6.752;2023-08-01T13:15:25;1.17;;;0.20;;
53710;SDS011;39605;52.704;6.752;2023-08-01T13:17:51;3.55;;;0.50;;
53710;SDS011;39605;52.704;6.752;2023-08-01T13:20:18;2.97;;;0.25;;
53710;SDS011;39605;52.704;6.752;2023-08-01T13:22:48;0.95;;;0.20;;
53710;SDS011;39605;52.704;6.752;2023-08-01T13:25:15;2.13;;;0.30;;
53710;SDS011;39605;52.704;6.752;2023-08-01T13:27:41;4.03;;;0.20;;
53710;SDS011;39605;52.704;6.752;2023-08-01T13:30:07;4.10;;;0.20;;
53710;SDS011;39605;52.704;6.752;2023-08-01T13:32:34;1.27;;;0.22;;
53710;SDS011;39605;52.704;6.752;2023-08-01T13:35:00;1.85;;;0.40;;
53710;SDS011;39605;52.704;6.752;2023-08-01T13:37:26;3.30;;;0.40;;
53710;SDS011;39605;52.704;6.752;2023-08-01T13:39:54;2.90;;;0.57;;
53710;SDS011;39605;52.704;6.752;2023-08-01T13:42:21;3.00;;;0.30;;
53710;SDS011;39605;52.704;6.752;2023-08-01T13:44:47;1.45;;;0.30;;
53710;SDS011;39605;52.704;6.752;2023-08-01T13:47:13;3.40;;;0.35;;
53710;SDS011;39605;52.704;6.752;2023-08-01T13:49:39;1.25;;;0.20;;
53710;SDS011;39605;52.704;6.752;2023-08-01T13:52:05;3.33;;;0.40;;
53710;SDS011;39605;52.704;6.752;2023-08-01T13:54:31;2.47;;;0.40;;
53710;SDS011;39605;52.704;6.752;2023-08-01T13:56:57;3.10;;;0.30;;
53710;SDS011;39605;52.704;6.752;2023-08-01T13:59:24;3.90;;;0.63;;
53710;SDS011;39605;52.704;6.752;2023-08-01T14:01:50;2.72;;;0.30;;
53710;SDS011;39605;52.704;6.752;2023-08-01T14:04:16;2.42;;;0.40;;
53710;SDS011;39605;52.704;6.752;2023-08-01T14:06:42;1.67;;;0.32;;
53710;SDS011;39605;52.704;6.752;2023-08-01T14:09:08;1.55;;;0.20;;
53710;SDS011;39605;52.704;6.752;2023-08-01T14:11:35;1.52;;;0.30;;
53710;SDS011;39605;52.704;6.752;2023-08-01T14:14:01;1.60;;;0.20;;
53710;SDS011;39605;52.704;6.752;2023-08-01T14:16:28;2.55;;;0.20;;
53710;SDS011;39605;52.704;6.752;2023-08-01T14:18:54;4.70;;;0.30;;
53710;SDS011;39605;52.704;6.752;2023-08-01T14:21:20;0.35;;;0.10;;
53710;SDS011;39605;52.704;6.752;2023-08-01T14:23:46;1.30;;;0.20;;
53710;SDS011;39605;52.704;6.752;2023-08-01T14:26:12;0.55;;;0.10;;
53710;SDS011;39605;52.704;6.752;2023-08-01T14:28:38;1.80;;;0.25;;
53710;SDS011;39605;52.704;6.752;2023-08-01T14:31:05;1.20;;;0.10;;
53710;SDS011;39605;52.704;6.752;2023-08-01T14:33:32;1.50;;;0.17;;
53710;SDS011;39605;52.704;6.752;2023-08-01T14:35:59;2.60;;;0.15;;
53710;SDS011;39605;52.704;6.752;2023-08-01T14:38:25;1.02;;;0.15;;
53710;SDS011;39605;52.704;6.752;2023-08-01T14:40:54;1.05;;;0.20;;
53710;SDS011;39605;52.704;6.752;2023-08-01T14:43:20;1.75;;;0.20;;
53710;SDS011;39605;52.704;6.752;2023-08-01T14:45:46;1.58;;;0.10;;
53710;SDS011;39605;52.704;6.752;2023-08-01T14:48:12;1.10;;;0.25;;